Flight Track Log - Related Links

Times and Time Zones

All times are in EDT time to prevent confusion due to time zone crossing. See the UPS1216 flight status page for this flight to view local times or setup timezone preferences in your user account.

Time Position Orientation Groundspeed Altitude Reporting Facility
EDT Latitude Longitude Course Direction KTS MPH feet Rate Location/Type
Wed 04:08:02 AM 42.1870 -89.0910 182° South 150 173 1,500  Level FlightAware ADS-B
Wed 04:08:17 AM 42.1760 -89.0870 165° South 162 186 2,500 2,800 Climbing FlightAware ADS-B
Wed 04:08:32 AM 42.1670 -89.0750 135° Southeast 205 236 2,900 2,400 Climbing FlightAware ADS-B
Wed 04:08:47 AM 42.1610 -89.0550 112° Southeast 232 267 3,700 3,067 Climbing FlightAware ADS-B
Wed 04:09:17 AM 42.1620 -89.0090 88° East 256 295 5,200 2,509 Climbing FlightAware ADS-B
Wed 04:09:42 AM 42.1630 -88.9680 88° East 286 329 6,000 2,760 Climbing FlightAware ADS-B
Wed 04:10:07 AM 42.1650 -88.9200 87° East 291 335 7,500 3,491 Climbing FlightAware ADS-B
Wed 04:10:37 AM 42.1690 -88.8690 84° East 296 341 9,200 2,880 Climbing FlightAware ADS-B
Wed 04:11:22 AM 42.1740 -88.7880 85° East 319 367 11,100 2,188 Climbing FlightAware ADS-B
Wed 04:12:02 AM 42.1780 -88.6970 87° East 361 415 12,300 2,325 Climbing FlightAware ADS-B
Wed 04:12:42 AM 42.1840 -88.6020 85° East 372 428 14,200 2,612 Climbing FlightAware ADS-B
Wed 04:13:27 AM 42.1910 -88.4990 85° East 383 441 16,000 2,400 Climbing FlightAware ADS-B
Wed 04:14:07 AM 42.1970 -88.4010 85° East 394 453 17,600 2,325 Climbing FlightAware ADS-B
Wed 04:14:47 AM 42.2030 -88.3020 85° East 403 464 19,100 2,118 Climbing FlightAware ADS-B
Wed 04:15:32 AM 42.2090 -88.1840 86° East 416 479 20,600 1,906 Climbing FlightAware ADS-B
Wed 04:16:12 AM 42.2150 -88.0780 86° East 425 489 21,800 1,800 Climbing FlightAware ADS-B
Wed 04:17:12 AM 42.2100 -87.9160 92° East 437 503 23,600 1,860 Climbing FlightAware ADS-B
Wed 04:17:52 AM 42.1760 -87.8160 115° Southeast 443 510 24,900 1,800 Climbing FlightAware ADS-B
Wed 04:18:32 AM 42.1400 -87.7160 116° Southeast 451 519 26,000 1,624 Climbing FlightAware ADS-B
Wed 04:19:17 AM 42.1000 -87.6020 115° Southeast 458 527 27,200 1,553 Climbing FlightAware ADS-B
Wed 04:19:57 AM 42.0630 -87.4970 115° Southeast 466 536 28,200 1,575 Climbing FlightAware ADS-B
Wed 04:20:37 AM 42.0410 -87.3840 105° East 473 544 29,300 1,694 Climbing FlightAware ADS-B
Wed 04:21:22 AM 42.0270 -87.2500 98° East 479 551 30,600 2,118 Climbing FlightAware ADS-B
Wed 04:22:02 AM 42.0140 -87.1300 98° East 471 542 32,300 2,400 Climbing FlightAware ADS-B
Wed 04:22:47 AM 41.9990 -86.9990 99° East 464 534 34,000 1,906 Climbing FlightAware ADS-B
Wed 04:23:27 AM 41.9870 -86.8860 98° East 463 533 35,000 750 Climbing FlightAware ADS-B
Wed 04:24:07 AM 41.9740 -86.7720 99° East 463 533 35,000  Level FlightAware ADS-B
Wed 04:24:52 AM 41.9600 -86.6480 99° East 468 539 35,000 494 Level FlightAware ADS-B
Wed 04:25:32 AM 41.9460 -86.5300 99° East 468 539 35,700 1,425 Climbing FlightAware ADS-B
Wed 04:26:12 AM 41.9330 -86.4170 99° East 459 528 36,900 975 Climbing FlightAware ADS-B
Wed 04:26:52 AM 41.9210 -86.3100 99° East 452 520 37,000 67 Climbing FlightAware ADS-B
Wed 04:27:42 AM 41.9040 -86.1650 99° East 453 521 37,000  Level FlightAware ADS-B
Wed 04:28:22 AM 41.8910 -86.0530 99° East 457 526 37,000  Level FlightAware ADS-B
Wed 04:29:07 AM 41.8750 -85.9250 99° East 461 531 37,000  Level FlightAware ADS-B
Wed 04:29:47 AM 41.8620 -85.8160 99° East 462 532 37,000  Level FlightAware ADS-B
Wed 04:30:27 AM 41.8470 -85.6960 99° East 462 532 37,000  Level FlightAware ADS-B
Wed 04:31:12 AM 41.8320 -85.5750 99° East 461 531 37,000  Level FlightAware ADS-B
Wed 04:31:52 AM 41.8180 -85.4620 99° East 459 528 37,000  Level FlightAware ADS-B
Wed 04:32:32 AM 41.8050 -85.3550 99° East 456 525 37,000  Level FlightAware ADS-B
Wed 04:33:17 AM 41.7890 -85.2260 99° East 453 521 37,000  Level FlightAware ADS-B
Wed 04:33:57 AM 41.7730 -85.1060 100° East 450 518 37,000  Level FlightAware ADS-B
Wed 04:34:42 AM 41.7580 -84.9850 99° East 448 516 37,000  Level FlightAware ADS-B
Wed 04:35:12 AM 41.7470 -84.9050 100° East 447 514 37,000  Level FlightAware ADS-B
Wed 04:36:07 AM 41.7240 -84.7550 102° East 447 514 37,000  Level FlightAware ADS-B
Wed 04:36:47 AM 41.6910 -84.6540 114° Southeast 448 516 37,000  Level FlightAware ADS-B
Wed 04:37:27 AM 41.6530 -84.5530 117° Southeast 447 514 37,000  Level FlightAware ADS-B
Wed 04:38:12 AM 41.6120 -84.4390 116° Southeast 446 513 37,000  Level FlightAware ADS-B
Wed 04:38:52 AM 41.5750 -84.3390 116° Southeast 445 512 37,000  Level FlightAware ADS-B
Wed 04:39:32 AM 41.5390 -84.2420 116° Southeast 444 511 37,000  Level FlightAware ADS-B
Wed 04:40:17 AM 41.4990 -84.1340 116° Southeast 444 511 37,000  Level FlightAware ADS-B
Wed 04:40:57 AM 41.4610 -84.0320 116° Southeast 444 511 37,000  Level FlightAware ADS-B
Wed 04:41:42 AM 41.4200 -83.9200 116° Southeast 444 511 37,000  Level FlightAware ADS-B
Wed 04:42:22 AM 41.3840 -83.8230 116° Southeast 444 511 37,000  Level FlightAware ADS-B
Wed 04:43:02 AM 41.3470 -83.7230 116° Southeast 445 512 37,000  Level FlightAware ADS-B
Wed 04:43:47 AM 41.3050 -83.6130 117° Southeast 446 513 37,000  Level FlightAware ADS-B
Wed 04:44:27 AM 41.2680 -83.5140 116° Southeast 447 514 37,000  Level FlightAware ADS-B
Wed 04:45:07 AM 41.2310 -83.4170 117° Southeast 447 514 37,000  Level FlightAware ADS-B
Wed 04:45:52 AM 41.1880 -83.3050 117° Southeast 446 513 37,000  Level FlightAware ADS-B
Wed 04:46:32 AM 41.1500 -83.2060 117° Southeast 447 514 37,000  Level FlightAware ADS-B
Wed 04:47:17 AM 41.1100 -83.1040 117° Southeast 447 514 37,000  Level FlightAware ADS-B
Wed 04:47:57 AM 41.0700 -82.9990 117° Southeast 447 514 37,000  Level FlightAware ADS-B
Wed 04:48:42 AM 41.0270 -82.8900 118° Southeast 448 516 37,000  Level FlightAware ADS-B
Wed 04:49:22 AM 40.9920 -82.8000 117° Southeast 448 516 37,000  Level FlightAware ADS-B
Wed 04:50:02 AM 40.9490 -82.6920 118° Southeast 447 514 37,000  Level FlightAware ADS-B
Wed 04:50:47 AM 40.9080 -82.5870 117° Southeast 447 514 37,000  Level FlightAware ADS-B
Wed 04:51:27 AM 40.8680 -82.4860 118° Southeast 449 517 37,000  Level FlightAware ADS-B
Wed 04:52:12 AM 40.8250 -82.3780 118° Southeast 448 516 37,000  Level FlightAware ADS-B
Wed 04:52:52 AM 40.7850 -82.2780 118° Southeast 448 516 37,000  Level FlightAware ADS-B
Wed 04:53:32 AM 40.7480 -82.1850 118° Southeast 449 517 37,000  Level FlightAware ADS-B
Wed 04:54:17 AM 40.7030 -82.0730 118° Southeast 449 517 37,000  Level FlightAware ADS-B
Wed 04:54:57 AM 40.6650 -81.9770 118° Southeast 450 518 37,000  Level FlightAware ADS-B
Wed 04:55:42 AM 40.6200 -81.8640 118° Southeast 452 520 37,000  Level FlightAware ADS-B
Wed 04:56:22 AM 40.5820 -81.7710 118° Southeast 453 521 37,000  Level FlightAware ADS-B
Wed 04:57:02 AM 40.5420 -81.6720 118° Southeast 456 525 37,000  Level FlightAware ADS-B
Wed 04:57:47 AM 40.4970 -81.5600 118° Southeast 459 528 37,000  Level FlightAware ADS-B
Wed 04:58:27 AM 40.4570 -81.4600 118° Southeast 460 529 37,000  Level FlightAware ADS-B
Wed 04:59:07 AM 40.4160 -81.3610 119° Southeast 461 531 37,000  Level FlightAware ADS-B
Wed 04:59:52 AM 40.3700 -81.2490 118° Southeast 462 532 37,000  Level FlightAware ADS-B
Wed 05:00:37 AM 40.3250 -81.1400 118° Southeast 462 532 37,000  Level FlightAware ADS-B
Wed 05:01:17 AM 40.2840 -81.0410 118° Southeast 461 531 37,000  Level FlightAware ADS-B
Wed 05:01:57 AM 40.2480 -80.9410 115° Southeast 461 531 37,000  Level FlightAware ADS-B
Wed 05:02:37 AM 40.2150 -80.8370 113° Southeast 461 531 37,000  Level FlightAware ADS-B
Wed 05:03:22 AM 40.1810 -80.7260 112° Southeast 460 529 37,000  Level FlightAware ADS-B
Wed 05:04:02 AM 40.1480 -80.6180 112° Southeast 461 531 37,000  Level FlightAware ADS-B
Wed 05:04:47 AM 40.1120 -80.5020 112° Southeast 462 532 37,000  Level FlightAware ADS-B
Wed 05:05:37 AM 40.0740 -80.3800 112° Southeast 462 532 37,000  Level FlightAware ADS-B
Wed 05:06:37 AM 40.0230 -80.2180 112° Southeast 462 532 37,000  Level FlightAware ADS-B
Wed 05:07:22 AM 39.9870 -80.1030 112° Southeast 462 532 37,000  Level FlightAware ADS-B
Wed 05:08:02 AM 39.9540 -80.0000 113° Southeast 463 533 37,000  Level FlightAware ADS-B
Wed 05:08:42 AM 39.9210 -79.8940 112° Southeast 464 534 37,000  Level FlightAware ADS-B
Wed 05:09:27 AM 39.8840 -79.7770 112° Southeast 464 534 37,000  Level FlightAware ADS-B
Wed 05:10:07 AM 39.8500 -79.6730 113° Southeast 466 536 37,000  Level FlightAware ADS-B
Wed 05:10:52 AM 39.8140 -79.5600 112° Southeast 466 536 37,000 -71 Level FlightAware ADS-B
Wed 05:11:32 AM 39.7790 -79.4530 113° Southeast 466 536 36,900 -1,129 Descending FlightAware ADS-B
Wed 05:12:17 AM 39.7420 -79.3390 113° Southeast 461 531 35,400 -2,329 Descending FlightAware ADS-B
Wed 05:12:57 AM 39.7080 -79.2340 113° Southeast 459 528 33,600 -2,550 Descending FlightAware ADS-B
Wed 05:13:37 AM 39.6750 -79.1340 113° Southeast 448 516 32,000 -2,325 Descending FlightAware ADS-B
Wed 05:14:17 AM 39.6490 -79.0340 109° East 435 501 30,500 -2,188 Descending FlightAware ADS-B
Wed 05:15:02 AM 39.6250 -78.9210 105° East 424 488 28,900 -2,188 Descending FlightAware ADS-B
Wed 05:15:42 AM 39.6040 -78.8240 106° East 418 481 27,400 -2,259 Descending FlightAware ADS-B
Wed 05:16:27 AM 39.5810 -78.7160 105° East 412 474 25,700 -2,259 Descending FlightAware ADS-B
Wed 05:17:07 AM 39.5600 -78.6190 106° East 407 468 24,200 -2,259 Descending FlightAware ADS-B
Wed 05:17:52 AM 39.5360 -78.5130 106° East 401 461 22,500 -2,188 Descending FlightAware ADS-B
Wed 05:18:32 AM 39.5160 -78.4210 106° East 394 453 21,100 -2,175 Descending FlightAware ADS-B
Wed 05:19:12 AM 39.4960 -78.3320 106° East 386 444 19,600 -2,400 Descending FlightAware ADS-B
Wed 05:19:52 AM 39.4770 -78.2440 106° East 383 441 17,900 -2,400 Descending FlightAware ADS-B
Wed 05:20:37 AM 39.4550 -78.1440 106° East 365 420 16,200 -2,133 Descending FlightAware ADS-B
Wed 05:21:22 AM 39.4340 -78.0510 106° East 349 402 14,700 -1,271 Descending FlightAware ADS-B
Wed 05:22:02 AM 39.4290 -77.9690 94° East 335 386 14,400 -525 Descending FlightAware ADS-B
Wed 05:22:42 AM 39.4310 -77.8890 88° East 330 380 14,000 -635 Descending FlightAware ADS-B
Wed 05:23:27 AM 39.4340 -77.8000 87° East 326 375 13,500 -706 Descending FlightAware ADS-B
Wed 05:24:07 AM 39.4370 -77.7220 87° East 322 371 13,000 -706 Descending FlightAware ADS-B
Wed 05:24:52 AM 39.4390 -77.6350 88° East 320 368 12,500 -706 Descending FlightAware ADS-B
Wed 05:25:32 AM 39.4410 -77.5650 88° East 319 367 12,000 -600 Descending FlightAware ADS-B
Wed 05:26:12 AM 39.4430 -77.4940 88° East 315 362 11,700 -847 Descending FlightAware ADS-B
Wed 05:26:57 AM 39.4450 -77.4150 88° East 296 341 10,800 -776 Descending FlightAware ADS-B
Wed 05:27:37 AM 39.4500 -77.3460 85° East 275 316 10,600 -141 Descending FlightAware ADS-B
Wed 05:28:22 AM 39.4590 -77.2700 81° East 280 322 10,600 -75 Level FlightAware ADS-B
Wed 05:28:57 AM 39.4650 -77.2160 82° East 280 322 10,500 -1,029 Descending FlightAware ADS-B
Wed 05:29:32 AM 39.4590 -77.1410 96° East 276 318 9,400 -1,600 Descending FlightAware ADS-B
Wed 05:29:57 AM 39.4520 -77.1020 103° East 272 313 8,900 -1,350 Descending FlightAware ADS-B
Wed 05:30:12 AM 39.4480 -77.0820 105° East 268 308 8,500 -1,800 Descending FlightAware ADS-B
Wed 05:30:37 AM 39.4360 -77.0400 110° East 257 296 7,700 -1,855 Descending FlightAware ADS-B
Wed 05:31:07 AM 39.4190 -77.0010 119° Southeast 246 283 6,800 -1,867 Descending FlightAware ADS-B
Wed 05:31:22 AM 39.4110 -76.9820 119° Southeast 240 276 6,300 -1,650 Descending FlightAware ADS-B
Wed 05:31:47 AM 39.3990 -76.9510 117° Southeast 224 258 5,700 -1,418 Descending FlightAware ADS-B
Wed 05:32:17 AM 39.3860 -76.9180 117° Southeast 212 244 5,000 -1,400 Descending FlightAware ADS-B
Wed 05:32:47 AM 39.3750 -76.8900 117° Southeast 209 241 4,300 -1,371 Descending FlightAware ADS-B
Wed 05:32:52 AM 39.3720 -76.8830 119° Southeast 208 239 4,200 -1,714 Descending FlightAware ADS-B
Wed 05:33:22 AM 39.3570 -76.8520 122° Southeast 202 232 3,300 -1,745 Descending FlightAware ADS-B
Wed 05:33:47 AM 39.3390 -76.8270 133° Southeast 198 228 2,600 -900 Descending FlightAware ADS-B
Wed 05:34:22 AM 39.3170 -76.8030 140° Southeast 191 220 2,400 -300 Descending FlightAware ADS-B
Wed 05:34:47 AM 39.3010 -76.7880 144° Southeast 156 180 2,300 -282 Descending FlightAware ADS-B
Wed 05:35:47 AM 39.2700 -76.7600 145° Southeast 110 127 2,000 -375 Descending FlightAware ADS-B
Wed 05:36:07 AM 39.2640 -76.7550 147° Southeast 107 123 1,800 -343 Descending FlightAware ADS-B
Wed 05:36:57 AM 39.2450 -76.7370 144° Southeast 109 125 1,600 -380 Descending FlightAware ADS-B
Wed 05:37:26 AM 39.2333 -76.7167 144° Southeast 113 130 1,300 -607 Descending Potomac TRACON
Wed 05:38:26 AM 39.2000 -76.7000 159° South 119 137 700 -600 Descending Potomac TRACON
Wed 05:40:00 AM 39.1754 -76.6683 150° Southeast  Level Estimated

Login

Don't have an account? Register now (free) for customized features, flight alerts, and more!